sensor_id;sensor_type;location;lat;lon;timestamp;P1;durP1;ratioP1;P2;durP2;ratioP2
57457;SDS011;43304;52.332;6.110;2023-04-28T00:02:11;10.43;;;9.32;;
57457;SDS011;43304;52.332;6.110;2023-04-28T00:04:38;9.27;;;8.40;;
57457;SDS011;43304;52.332;6.110;2023-04-28T00:07:05;10.52;;;9.20;;
57457;SDS011;43304;52.332;6.110;2023-04-28T00:09:32;9.88;;;8.82;;
57457;SDS011;43304;52.332;6.110;2023-04-28T00:11:59;9.23;;;8.43;;
57457;SDS011;43304;52.332;6.110;2023-04-28T00:14:27;9.35;;;8.45;;
57457;SDS011;43304;52.332;6.110;2023-04-28T00:16:54;9.02;;;8.13;;
57457;SDS011;43304;52.332;6.110;2023-04-28T00:19:24;8.88;;;7.95;;
57457;SDS011;43304;52.332;6.110;2023-04-28T00:21:51;9.60;;;8.48;;
57457;SDS011;43304;52.332;6.110;2023-04-28T00:24:18;8.90;;;8.00;;
57457;SDS011;43304;52.332;6.110;2023-04-28T00:26:45;9.40;;;8.50;;
57457;SDS011;43304;52.332;6.110;2023-04-28T00:29:12;9.05;;;8.15;;
57457;SDS011;43304;52.332;6.110;2023-04-28T00:31:39;9.43;;;8.23;;
57457;SDS011;43304;52.332;6.110;2023-04-28T00:34:06;9.40;;;8.43;;
57457;SDS011;43304;52.332;6.110;2023-04-28T00:36:33;9.20;;;8.30;;
57457;SDS011;43304;52.332;6.110;2023-04-28T00:39:01;9.82;;;8.82;;
57457;SDS011;43304;52.332;6.110;2023-04-28T00:41:28;10.32;;;8.63;;
57457;SDS011;43304;52.332;6.110;2023-04-28T00:43:55;10.73;;;9.02;;
57457;SDS011;43304;52.332;6.110;2023-04-28T00:46:23;10.43;;;9.32;;
57457;SDS011;43304;52.332;6.110;2023-04-28T00:48:52;10.20;;;9.23;;
57457;SDS011;43304;52.332;6.110;2023-04-28T00:51:20;11.90;;;9.18;;
57457;SDS011;43304;52.332;6.110;2023-04-28T00:53:47;10.57;;;9.48;;
57457;SDS011;43304;52.332;6.110;2023-04-28T00:56:15;10.70;;;9.57;;
57457;SDS011;43304;52.332;6.110;2023-04-28T00:58:42;10.98;;;9.63;;
57457;SDS011;43304;52.332;6.110;2023-04-28T01:01:09;10.50;;;9.48;;
57457;SDS011;43304;52.332;6.110;2023-04-28T01:03:37;10.68;;;9.68;;
57457;SDS011;43304;52.332;6.110;2023-04-28T01:06:06;10.52;;;9.52;;
57457;SDS011;43304;52.332;6.110;2023-04-28T01:08:35;10.95;;;9.85;;
57457;SDS011;43304;52.332;6.110;2023-04-28T01:11:02;11.25;;;10.10;;
57457;SDS011;43304;52.332;6.110;2023-04-28T01:13:29;11.52;;;10.35;;
57457;SDS011;43304;52.332;6.110;2023-04-28T01:15:56;12.05;;;10.88;;
57457;SDS011;43304;52.332;6.110;2023-04-28T01:18:24;12.68;;;10.65;;
57457;SDS011;43304;52.332;6.110;2023-04-28T01:20:51;11.88;;;10.70;;
57457;SDS011;43304;52.332;6.110;2023-04-28T01:23:18;11.68;;;10.57;;
57457;SDS011;43304;52.332;6.110;2023-04-28T01:25:45;11.98;;;10.85;;
57457;SDS011;43304;52.332;6.110;2023-04-28T01:28:12;12.23;;;10.95;;
57457;SDS011;43304;52.332;6.110;2023-04-28T01:30:39;12.40;;;11.10;;
57457;SDS011;43304;52.332;6.110;2023-04-28T01:33:06;11.98;;;10.88;;
57457;SDS011;43304;52.332;6.110;2023-04-28T01:35:33;11.75;;;10.55;;
57457;SDS011;43304;52.332;6.110;2023-04-28T01:38:00;12.35;;;11.05;;
57457;SDS011;43304;52.332;6.110;2023-04-28T01:40:27;12.35;;;11.18;;
57457;SDS011;43304;52.332;6.110;2023-04-28T01:42:54;12.43;;;10.98;;
57457;SDS011;43304;52.332;6.110;2023-04-28T01:45:21;12.53;;;11.23;;
57457;SDS011;43304;52.332;6.110;2023-04-28T01:47:48;12.32;;;11.07;;
57457;SDS011;43304;52.332;6.110;2023-04-28T01:50:15;12.27;;;10.93;;
57457;SDS011;43304;52.332;6.110;2023-04-28T01:52:42;12.27;;;11.07;;
57457;SDS011;43304;52.332;6.110;2023-04-28T01:55:09;12.18;;;10.98;;
57457;SDS011;43304;52.332;6.110;2023-04-28T01:57:36;12.13;;;10.93;;
57457;SDS011;43304;52.332;6.110;2023-04-28T02:00:03;12.80;;;11.50;;
57457;SDS011;43304;52.332;6.110;2023-04-28T02:02:30;14.88;;;11.50;;
57457;SDS011;43304;52.332;6.110;2023-04-28T02:04:58;12.23;;;11.02;;
57457;SDS011;43304;52.332;6.110;2023-04-28T02:07:25;12.60;;;11.35;;
57457;SDS011;43304;52.332;6.110;2023-04-28T02:09:52;12.35;;;11.15;;
57457;SDS011;43304;52.332;6.110;2023-04-28T02:12:19;12.95;;;11.60;;
57457;SDS011;43304;52.332;6.110;2023-04-28T02:14:46;12.75;;;11.55;;
57457;SDS011;43304;52.332;6.110;2023-04-28T02:17:13;12.50;;;11.20;;
57457;SDS011;43304;52.332;6.110;2023-04-28T02:19:40;12.80;;;11.60;;
57457;SDS011;43304;52.332;6.110;2023-04-28T02:22:07;12.98;;;11.75;;
57457;SDS011;43304;52.332;6.110;2023-04-28T02:24:35;13.02;;;11.73;;
57457;SDS011;43304;52.332;6.110;2023-04-28T02:27:03;12.95;;;11.60;;
57457;SDS011;43304;52.332;6.110;2023-04-28T02:29:31;13.07;;;11.75;;
57457;SDS011;43304;52.332;6.110;2023-04-28T02:31:58;12.55;;;11.35;;
57457;SDS011;43304;52.332;6.110;2023-04-28T02:34:25;12.63;;;11.32;;
57457;SDS011;43304;52.332;6.110;2023-04-28T02:36:52;13.70;;;12.30;;
57457;SDS011;43304;52.332;6.110;2023-04-28T02:39:19;12.73;;;11.43;;
57457;SDS011;43304;52.332;6.110;2023-04-28T02:41:48;13.27;;;11.97;;
57457;SDS011;43304;52.332;6.110;2023-04-28T02:44:15;12.48;;;11.27;;
57457;SDS011;43304;52.332;6.110;2023-04-28T02:46:42;12.85;;;11.55;;
57457;SDS011;43304;52.332;6.110;2023-04-28T02:49:09;12.87;;;11.57;;
57457;SDS011;43304;52.332;6.110;2023-04-28T02:51:36;12.00;;;10.80;;
57457;SDS011;43304;52.332;6.110;2023-04-28T02:54:03;12.50;;;11.30;;
57457;SDS011;43304;52.332;6.110;2023-04-28T02:56:30;12.27;;;11.07;;
57457;SDS011;43304;52.332;6.110;2023-04-28T02:58:58;11.98;;;10.85;;
57457;SDS011;43304;52.332;6.110;2023-04-28T03:01:25;11.90;;;10.73;;
57457;SDS011;43304;52.332;6.110;2023-04-28T03:03:52;12.27;;;11.07;;
57457;SDS011;43304;52.332;6.110;2023-04-28T03:06:19;11.88;;;10.73;;
57457;SDS011;43304;52.332;6.110;2023-04-28T03:08:46;11.68;;;10.60;;
57457;SDS011;43304;52.332;6.110;2023-04-28T03:11:13;11.55;;;10.35;;
57457;SDS011;43304;52.332;6.110;2023-04-28T03:13:40;11.68;;;10.48;;
57457;SDS011;43304;52.332;6.110;2023-04-28T03:16:07;11.07;;;9.90;;
57457;SDS011;43304;52.332;6.110;2023-04-28T03:18:35;11.18;;;10.13;;
57457;SDS011;43304;52.332;6.110;2023-04-28T03:21:02;11.05;;;9.95;;
57457;SDS011;43304;52.332;6.110;2023-04-28T03:23:29;11.15;;;9.95;;
57457;SDS011;43304;52.332;6.110;2023-04-28T03:25:56;10.63;;;9.52;;
57457;SDS011;43304;52.332;6.110;2023-04-28T03:28:23;10.43;;;9.43;;
57457;SDS011;43304;52.332;6.110;2023-04-28T03:30:50;11.00;;;9.90;;
57457;SDS011;43304;52.332;6.110;2023-04-28T03:33:17;10.23;;;9.23;;
57457;SDS011;43304;52.332;6.110;2023-04-28T03:35:44;9.85;;;8.95;;
57457;SDS011;43304;52.332;6.110;2023-04-28T03:38:11;11.70;;;9.13;;
57457;SDS011;43304;52.332;6.110;2023-04-28T03:40:38;9.93;;;8.80;;
57457;SDS011;43304;52.332;6.110;2023-04-28T03:43:06;10.43;;;8.82;;
57457;SDS011;43304;52.332;6.110;2023-04-28T03:45:33;10.90;;;8.98;;
57457;SDS011;43304;52.332;6.110;2023-04-28T03:48:00;9.38;;;8.48;;
57457;SDS011;43304;52.332;6.110;2023-04-28T03:50:27;10.73;;;9.52;;
57457;SDS011;43304;52.332;6.110;2023-04-28T03:52:54;10.55;;;9.52;;
57457;SDS011;43304;52.332;6.110;2023-04-28T03:55:21;10.65;;;9.52;;
57457;SDS011;43304;52.332;6.110;2023-04-28T03:57:48;11.77;;;10.57;;
57457;SDS011;43304;52.332;6.110;2023-04-28T04:00:15;11.30;;;10.20;;
57457;SDS011;43304;52.332;6.110;2023-04-28T04:02:42;10.83;;;9.83;;
57457;SDS011;43304;52.332;6.110;2023-04-28T04:05:09;11.15;;;10.10;;
57457;SDS011;43304;52.332;6.110;2023-04-28T04:07:36;11.02;;;9.93;;
57457;SDS011;43304;52.332;6.110;2023-04-28T04:10:04;12.25;;;9.80;;
57457;SDS011;43304;52.332;6.110;2023-04-28T04:12:31;10.57;;;9.38;;
57457;SDS011;43304;52.332;6.110;2023-04-28T04:14:58;10.30;;;9.30;;
57457;SDS011;43304;52.332;6.110;2023-04-28T04:17:25;9.73;;;8.73;;
57457;SDS011;43304;52.332;6.110;2023-04-28T04:19:52;10.05;;;9.07;;
57457;SDS011;43304;52.332;6.110;2023-04-28T04:22:19;9.88;;;8.70;;
57457;SDS011;43304;52.332;6.110;2023-04-28T04:24:46;9.75;;;8.80;;
57457;SDS011;43304;52.332;6.110;2023-04-28T04:27:13;9.15;;;8.35;;
57457;SDS011;43304;52.332;6.110;2023-04-28T04:29:40;9.43;;;8.20;;
57457;SDS011;43304;52.332;6.110;2023-04-28T04:32:08;8.93;;;8.02;;
57457;SDS011;43304;52.332;6.110;2023-04-28T04:34:34;9.48;;;8.48;;
57457;SDS011;43304;52.332;6.110;2023-04-28T04:37:01;9.63;;;8.35;;
57457;SDS011;43304;52.332;6.110;2023-04-28T04:39:28;9.27;;;8.18;;
57457;SDS011;43304;52.332;6.110;2023-04-28T04:41:55;9.18;;;8.27;;
57457;SDS011;43304;52.332;6.110;2023-04-28T04:44:23;8.80;;;7.90;;
57457;SDS011;43304;52.332;6.110;2023-04-28T04:46:50;8.80;;;7.50;;
57457;SDS011;43304;52.332;6.110;2023-04-28T04:49:17;9.27;;;7.75;;
57457;SDS011;43304;52.332;6.110;2023-04-28T04:51:44;8.37;;;7.57;;
57457;SDS011;43304;52.332;6.110;2023-04-28T04:54:11;9.17;;;7.77;;
57457;SDS011;43304;52.332;6.110;2023-04-28T04:56:38;8.73;;;7.80;;
57457;SDS011;43304;52.332;6.110;2023-04-28T04:59:05;8.18;;;7.47;;
57457;SDS011;43304;52.332;6.110;2023-04-28T05:01:32;9.57;;;7.93;;
57457;SDS011;43304;52.332;6.110;2023-04-28T05:03:59;9.57;;;7.80;;
57457;SDS011;43304;52.332;6.110;2023-04-28T05:06:27;8.20;;;7.45;;
57457;SDS011;43304;52.332;6.110;2023-04-28T05:08:54;8.02;;;7.22;;
57457;SDS011;43304;52.332;6.110;2023-04-28T05:11:22;9.45;;;7.30;;
57457;SDS011;43304;52.332;6.110;2023-04-28T05:13:49;7.65;;;6.95;;
57457;SDS011;43304;52.332;6.110;2023-04-28T05:16:16;7.93;;;7.13;;
57457;SDS011;43304;52.332;6.110;2023-04-28T05:18:43;7.32;;;6.65;;
57457;SDS011;43304;52.332;6.110;2023-04-28T05:21:11;8.55;;;7.38;;
57457;SDS011;43304;52.332;6.110;2023-04-28T05:23:38;7.63;;;6.93;;
57457;SDS011;43304;52.332;6.110;2023-04-28T05:26:05;8.18;;;7.10;;
57457;SDS011;43304;52.332;6.110;2023-04-28T05:28:32;8.10;;;7.20;;
57457;SDS011;43304;52.332;6.110;2023-04-28T05:30:59;8.97;;;6.83;;
57457;SDS011;43304;52.332;6.110;2023-04-28T05:33:26;8.82;;;7.10;;
57457;SDS011;43304;52.332;6.110;2023-04-28T05:35:53;8.50;;;6.95;;
57457;SDS011;43304;52.332;6.110;2023-04-28T05:38:20;8.23;;;7.25;;
57457;SDS011;43304;52.332;6.110;2023-04-28T05:40:49;8.60;;;6.85;;
57457;SDS011;43304;52.332;6.110;2023-04-28T05:43:16;8.68;;;6.97;;
57457;SDS011;43304;52.332;6.110;2023-04-28T05:45:43;7.75;;;6.50;;
57457;SDS011;43304;52.332;6.110;2023-04-28T05:48:10;7.03;;;6.38;;
57457;SDS011;43304;52.332;6.110;2023-04-28T05:50:37;7.97;;;6.90;;
57457;SDS011;43304;52.332;6.110;2023-04-28T05:53:05;8.80;;;6.53;;
57457;SDS011;43304;52.332;6.110;2023-04-28T05:55:33;7.28;;;6.20;;
57457;SDS011;43304;52.332;6.110;2023-04-28T05:58:02;7.33;;;6.53;;
57457;SDS011;43304;52.332;6.110;2023-04-28T06:00:29;8.70;;;6.80;;
57457;SDS011;43304;52.332;6.110;2023-04-28T06:02:56;7.63;;;6.80;;
57457;SDS011;43304;52.332;6.110;2023-04-28T06:05:24;7.53;;;6.38;;
57457;SDS011;43304;52.332;6.110;2023-04-28T06:07:52;7.78;;;6.95;;
57457;SDS011;43304;52.332;6.110;2023-04-28T06:10:21;8.38;;;6.95;;
57457;SDS011;43304;52.332;6.110;2023-04-28T06:12:48;8.77;;;7.10;;
57457;SDS011;43304;52.332;6.110;2023-04-28T06:15:15;8.48;;;6.80;;
57457;SDS011;43304;52.332;6.110;2023-04-28T06:17:42;8.85;;;7.32;;
57457;SDS011;43304;52.332;6.110;2023-04-28T06:20:10;8.37;;;7.47;;
57457;SDS011;43304;52.332;6.110;2023-04-28T06:22:39;8.13;;;7.18;;
57457;SDS011;43304;52.332;6.110;2023-04-28T06:25:07;9.15;;;8.15;;
57457;SDS011;43304;52.332;6.110;2023-04-28T06:27:34;11.32;;;7.95;;
57457;SDS011;43304;52.332;6.110;2023-04-28T06:30:01;8.70;;;7.80;;
57457;SDS011;43304;52.332;6.110;2023-04-28T06:32:28;10.27;;;8.00;;
57457;SDS011;43304;52.332;6.110;2023-04-28T06:34:55;8.70;;;7.30;;
57457;SDS011;43304;52.332;6.110;2023-04-28T06:37:24;10.80;;;8.83;;
57457;SDS011;43304;52.332;6.110;2023-04-28T06:39:51;9.70;;;8.67;;
57457;SDS011;43304;52.332;6.110;2023-04-28T06:42:18;11.27;;;8.52;;
57457;SDS011;43304;52.332;6.110;2023-04-28T06:44:46;10.80;;;9.70;;
57457;SDS011;43304;52.332;6.110;2023-04-28T06:47:13;11.75;;;10.60;;
57457;SDS011;43304;52.332;6.110;2023-04-28T06:49:40;13.98;;;12.50;;
57457;SDS011;43304;52.332;6.110;2023-04-28T06:52:09;12.85;;;11.55;;
57457;SDS011;43304;52.332;6.110;2023-04-28T06:54:36;15.87;;;13.77;;
57457;SDS011;43304;52.332;6.110;2023-04-28T06:57:04;16.15;;;14.27;;
57457;SDS011;43304;52.332;6.110;2023-04-28T06:59:31;18.60;;;16.60;;
57457;SDS011;43304;52.332;6.110;2023-04-28T07:01:58;18.63;;;16.60;;
57457;SDS011;43304;52.332;6.110;2023-04-28T07:04:25;18.75;;;16.85;;
57457;SDS011;43304;52.332;6.110;2023-04-28T07:06:52;19.13;;;17.13;;
57457;SDS011;43304;52.332;6.110;2023-04-28T07:09:19;18.90;;;16.60;;
57457;SDS011;43304;52.332;6.110;2023-04-28T07:11:46;17.73;;;15.60;;
57457;SDS011;43304;52.332;6.110;2023-04-28T07:14:13;17.27;;;15.57;;
57457;SDS011;43304;52.332;6.110;2023-04-28T07:16:41;17.43;;;15.70;;
57457;SDS011;43304;52.332;6.110;2023-04-28T07:19:08;21.15;;;19.00;;
57457;SDS011;43304;52.332;6.110;2023-04-28T07:21:36;20.17;;;18.08;;
57457;SDS011;43304;52.332;6.110;2023-04-28T07:24:02;18.85;;;16.95;;
57457;SDS011;43304;52.332;6.110;2023-04-28T07:26:29;19.02;;;17.13;;
57457;SDS011;43304;52.332;6.110;2023-04-28T07:28:59;15.77;;;14.13;;
57457;SDS011;43304;52.332;6.110;2023-04-28T07:31:26;17.90;;;16.20;;
57457;SDS011;43304;52.332;6.110;2023-04-28T07:33:53;17.98;;;16.25;;
57457;SDS011;43304;52.332;6.110;2023-04-28T07:36:20;18.80;;;16.90;;
57457;SDS011;43304;52.332;6.110;2023-04-28T07:38:47;17.80;;;15.60;;
57457;SDS011;43304;52.332;6.110;2023-04-28T07:41:15;18.00;;;16.08;;
57457;SDS011;43304;52.332;6.110;2023-04-28T07:43:43;17.98;;;16.20;;
57457;SDS011;43304;52.332;6.110;2023-04-28T07:46:10;19.42;;;17.35;;
57457;SDS011;43304;52.332;6.110;2023-04-28T07:48:38;17.95;;;16.25;;
57457;SDS011;43304;52.332;6.110;2023-04-28T07:51:05;19.95;;;17.85;;
57457;SDS011;43304;52.332;6.110;2023-04-28T07:53:32;18.33;;;16.50;;
57457;SDS011;43304;52.332;6.110;2023-04-28T07:55:59;18.63;;;16.73;;
57457;SDS011;43304;52.332;6.110;2023-04-28T07:58:26;18.20;;;16.35;;
57457;SDS011;43304;52.332;6.110;2023-04-28T08:00:54;18.58;;;16.60;;
57457;SDS011;43304;52.332;6.110;2023-04-28T08:03:21;19.40;;;17.30;;
57457;SDS011;43304;52.332;6.110;2023-04-28T08:05:48;21.23;;;18.95;;
57457;SDS011;43304;52.332;6.110;2023-04-28T08:08:15;17.77;;;16.08;;
57457;SDS011;43304;52.332;6.110;2023-04-28T08:10:42;20.00;;;17.95;;
57457;SDS011;43304;52.332;6.110;2023-04-28T08:13:09;18.15;;;16.38;;
57457;SDS011;43304;52.332;6.110;2023-04-28T08:15:36;18.35;;;16.55;;
57457;SDS011;43304;52.332;6.110;2023-04-28T08:18:03;19.67;;;17.52;;
57457;SDS011;43304;52.332;6.110;2023-04-28T08:20:30;18.98;;;17.15;;
57457;SDS011;43304;52.332;6.110;2023-04-28T08:22:58;18.83;;;16.98;;
57457;SDS011;43304;52.332;6.110;2023-04-28T08:25:25;19.60;;;17.60;;
57457;SDS011;43304;52.332;6.110;2023-04-28T08:27:52;18.98;;;17.08;;
57457;SDS011;43304;52.332;6.110;2023-04-28T08:30:23;20.45;;;18.40;;
57457;SDS011;43304;52.332;6.110;2023-04-28T08:32:50;19.02;;;17.15;;
57457;SDS011;43304;52.332;6.110;2023-04-28T08:35:17;19.48;;;17.58;;
57457;SDS011;43304;52.332;6.110;2023-04-28T08:37:44;18.65;;;16.00;;
57457;SDS011;43304;52.332;6.110;2023-04-28T08:40:13;18.35;;;16.63;;
57457;SDS011;43304;52.332;6.110;2023-04-28T08:42:40;17.70;;;16.00;;
57457;SDS011;43304;52.332;6.110;2023-04-28T08:45:08;17.97;;;16.27;;
57457;SDS011;43304;52.332;6.110;2023-04-28T08:47:39;17.90;;;16.13;;
57457;SDS011;43304;52.332;6.110;2023-04-28T08:50:15;18.88;;;17.02;;
57457;SDS011;43304;52.332;6.110;2023-04-28T08:52:47;17.42;;;15.80;;
57457;SDS011;43304;52.332;6.110;2023-04-28T08:55:14;16.73;;;15.15;;
57457;SDS011;43304;52.332;6.110;2023-04-28T08:57:48;17.05;;;15.32;;
57457;SDS011;43304;52.332;6.110;2023-04-28T09:00:16;16.98;;;15.27;;
57457;SDS011;43304;52.332;6.110;2023-04-28T09:02:43;17.55;;;15.95;;
57457;SDS011;43304;52.332;6.110;2023-04-28T09:05:11;16.88;;;15.35;;
57457;SDS011;43304;52.332;6.110;2023-04-28T09:07:39;17.17;;;15.52;;
57457;SDS011;43304;52.332;6.110;2023-04-28T09:10:22;18.13;;;16.33;;
57457;SDS011;43304;52.332;6.110;2023-04-28T09:12:51;18.52;;;16.83;;
57457;SDS011;43304;52.332;6.110;2023-04-28T09:18:00;16.40;;;14.82;;
57457;SDS011;43304;52.332;6.110;2023-04-28T09:20:31;16.65;;;14.88;;
57457;SDS011;43304;52.332;6.110;2023-04-28T09:23:17;16.60;;;15.10;;
57457;SDS011;43304;52.332;6.110;2023-04-28T09:26:02;16.02;;;14.52;;
57457;SDS011;43304;52.332;6.110;2023-04-28T09:28:33;16.27;;;14.57;;
57457;SDS011;43304;52.332;6.110;2023-04-28T09:31:01;16.53;;;14.73;;
57457;SDS011;43304;52.332;6.110;2023-04-28T09:33:28;16.02;;;14.52;;
57457;SDS011;43304;52.332;6.110;2023-04-28T09:35:55;17.38;;;15.57;;
57457;SDS011;43304;52.332;6.110;2023-04-28T09:38:22;16.42;;;14.82;;
57457;SDS011;43304;52.332;6.110;2023-04-28T09:40:50;16.45;;;14.95;;
57457;SDS011;43304;52.332;6.110;2023-04-28T09:45:58;16.60;;;15.10;;
57457;SDS011;43304;52.332;6.110;2023-04-28T09:48:35;17.90;;;16.30;;
57457;SDS011;43304;52.332;6.110;2023-04-28T09:51:06;15.73;;;14.35;;
57457;SDS011;43304;52.332;6.110;2023-04-28T09:53:33;16.47;;;14.87;;
57457;SDS011;43304;52.332;6.110;2023-04-28T09:56:02;16.77;;;15.10;;
57457;SDS011;43304;52.332;6.110;2023-04-28T09:58:30;16.30;;;14.70;;
57457;SDS011;43304;52.332;6.110;2023-04-28T10:00:59;16.25;;;14.68;;
57457;SDS011;43304;52.332;6.110;2023-04-28T10:03:27;16.70;;;15.18;;
57457;SDS011;43304;52.332;6.110;2023-04-28T10:05:56;16.65;;;14.88;;
57457;SDS011;43304;52.332;6.110;2023-04-28T10:08:24;16.27;;;14.77;;
57457;SDS011;43304;52.332;6.110;2023-04-28T10:10:53;16.95;;;15.25;;
57457;SDS011;43304;52.332;6.110;2023-04-28T10:13:20;15.77;;;14.07;;
57457;SDS011;43304;52.332;6.110;2023-04-28T10:15:48;16.88;;;15.27;;
57457;SDS011;43304;52.332;6.110;2023-04-28T10:18:16;16.13;;;14.60;;
57457;SDS011;43304;52.332;6.110;2023-04-28T10:20:45;17.23;;;15.63;;
57457;SDS011;43304;52.332;6.110;2023-04-28T10:25:59;17.90;;;16.10;;
57457;SDS011;43304;52.332;6.110;2023-04-28T10:28:26;17.95;;;16.35;;
57457;SDS011;43304;52.332;6.110;2023-04-28T10:31:09;18.40;;;16.60;;
57457;SDS011;43304;52.332;6.110;2023-04-28T10:33:40;18.10;;;16.43;;
57457;SDS011;43304;52.332;6.110;2023-04-28T10:36:07;18.40;;;16.70;;
57457;SDS011;43304;52.332;6.110;2023-04-28T10:38:34;19.92;;;18.08;;
57457;SDS011;43304;52.332;6.110;2023-04-28T10:41:02;20.02;;;18.23;;
57457;SDS011;43304;52.332;6.110;2023-04-28T10:43:36;21.33;;;19.23;;
57457;SDS011;43304;52.332;6.110;2023-04-28T10:46:06;23.23;;;21.13;;
57457;SDS011;43304;52.332;6.110;2023-04-28T10:48:51;24.27;;;22.17;;
57457;SDS011;43304;52.332;6.110;2023-04-28T10:56:15;23.38;;;21.48;;
57457;SDS011;43304;52.332;6.110;2023-04-28T10:58:50;23.80;;;21.75;;
57457;SDS011;43304;52.332;6.110;2023-04-28T11:03:49;22.00;;;20.10;;
57457;SDS011;43304;52.332;6.110;2023-04-28T11:06:27;23.48;;;21.50;;
57457;SDS011;43304;52.332;6.110;2023-04-28T11:11:41;23.83;;;21.73;;
57457;SDS011;43304;52.332;6.110;2023-04-28T11:14:32;26.50;;;24.10;;
57457;SDS011;43304;52.332;6.110;2023-04-28T11:17:01;26.40;;;24.25;;
57457;SDS011;43304;52.332;6.110;2023-04-28T11:22:03;25.23;;;23.13;;
57457;SDS011;43304;52.332;6.110;2023-04-28T11:24:37;24.77;;;22.67;;
57457;SDS011;43304;52.332;6.110;2023-04-28T11:27:04;24.38;;;22.48;;
57457;SDS011;43304;52.332;6.110;2023-04-28T11:29:34;24.55;;;22.58;;
57457;SDS011;43304;52.332;6.110;2023-04-28T11:32:02;24.02;;;21.95;;
57457;SDS011;43304;52.332;6.110;2023-04-28T11:34:30;23.95;;;21.95;;
57457;SDS011;43304;52.332;6.110;2023-04-28T11:36:58;24.40;;;22.17;;
57457;SDS011;43304;52.332;6.110;2023-04-28T11:39:26;25.40;;;23.20;;
57457;SDS011;43304;52.332;6.110;2023-04-28T11:41:55;26.85;;;24.55;;
57457;SDS011;43304;52.332;6.110;2023-04-28T11:44:23;27.52;;;25.20;;
57457;SDS011;43304;52.332;6.110;2023-04-28T11:46:54;28.52;;;26.23;;
57457;SDS011;43304;52.332;6.110;2023-04-28T11:49:29;28.58;;;26.15;;
57457;SDS011;43304;52.332;6.110;2023-04-28T11:52:17;27.05;;;24.70;;
57457;SDS011;43304;52.332;6.110;2023-04-28T11:54:51;26.83;;;24.55;;
57457;SDS011;43304;52.332;6.110;2023-04-28T11:57:19;27.67;;;25.30;;
57457;SDS011;43304;52.332;6.110;2023-04-28T11:59:47;26.58;;;24.27;;
57457;SDS011;43304;52.332;6.110;2023-04-28T12:02:22;26.88;;;24.60;;
57457;SDS011;43304;52.332;6.110;2023-04-28T12:04:51;26.05;;;23.85;;
57457;SDS011;43304;52.332;6.110;2023-04-28T12:07:18;25.35;;;23.25;;
57457;SDS011;43304;52.332;6.110;2023-04-28T12:09:46;23.30;;;21.30;;
57457;SDS011;43304;52.332;6.110;2023-04-28T12:12:34;22.20;;;20.40;;
57457;SDS011;43304;52.332;6.110;2023-04-28T12:15:16;20.17;;;18.57;;
57457;SDS011;43304;52.332;6.110;2023-04-28T12:17:45;20.02;;;18.35;;
57457;SDS011;43304;52.332;6.110;2023-04-28T12:23:02;20.08;;;18.35;;
57457;SDS011;43304;52.332;6.110;2023-04-28T12:25:29;19.25;;;17.73;;
57457;SDS011;43304;52.332;6.110;2023-04-28T12:28:00;20.85;;;19.15;;
57457;SDS011;43304;52.332;6.110;2023-04-28T12:30:33;20.63;;;18.92;;
57457;SDS011;43304;52.332;6.110;2023-04-28T12:33:01;19.15;;;17.45;;
57457;SDS011;43304;52.332;6.110;2023-04-28T12:35:28;18.63;;;17.10;;
57457;SDS011;43304;52.332;6.110;2023-04-28T12:37:55;19.33;;;17.63;;
57457;SDS011;43304;52.332;6.110;2023-04-28T12:40:24;18.13;;;16.63;;
57457;SDS011;43304;52.332;6.110;2023-04-28T12:42:52;19.43;;;17.83;;
57457;SDS011;43304;52.332;6.110;2023-04-28T12:45:19;19.60;;;17.95;;
57457;SDS011;43304;52.332;6.110;2023-04-28T12:47:46;18.70;;;17.20;;
57457;SDS011;43304;52.332;6.110;2023-04-28T12:50:14;18.00;;;16.42;;
57457;SDS011;43304;52.332;6.110;2023-04-28T12:52:41;17.15;;;15.73;;
57457;SDS011;43304;52.332;6.110;2023-04-28T12:55:08;16.15;;;14.95;;
57457;SDS011;43304;52.332;6.110;2023-04-28T12:57:35;16.90;;;15.50;;
57457;SDS011;43304;52.332;6.110;2023-04-28T13:00:05;16.93;;;15.50;;
57457;SDS011;43304;52.332;6.110;2023-04-28T13:02:33;17.40;;;16.10;;
57457;SDS011;43304;52.332;6.110;2023-04-28T13:05:00;17.77;;;16.27;;
57457;SDS011;43304;52.332;6.110;2023-04-28T13:07:28;18.17;;;16.73;;
57457;SDS011;43304;52.332;6.110;2023-04-28T13:09:56;17.58;;;16.17;;
57457;SDS011;43304;52.332;6.110;2023-04-28T13:12:23;17.42;;;16.02;;
57457;SDS011;43304;52.332;6.110;2023-04-28T13:14:50;16.30;;;14.90;;
57457;SDS011;43304;52.332;6.110;2023-04-28T13:17:17;16.17;;;14.88;;
57457;SDS011;43304;52.332;6.110;2023-04-28T13:19:44;16.48;;;15.10;;
57457;SDS011;43304;52.332;6.110;2023-04-28T13:22:12;16.50;;;15.15;;
57457;SDS011;43304;52.332;6.110;2023-04-28T13:24:39;15.70;;;14.48;;
57457;SDS011;43304;52.332;6.110;2023-04-28T13:27:06;15.85;;;14.65;;
57457;SDS011;43304;52.332;6.110;2023-04-28T13:29:36;14.82;;;13.55;;
57457;SDS011;43304;52.332;6.110;2023-04-28T13:32:03;13.57;;;12.47;;
57457;SDS011;43304;52.332;6.110;2023-04-28T13:34:31;12.93;;;11.82;;
57457;SDS011;43304;52.332;6.110;2023-04-28T13:36:58;13.15;;;12.05;;
57457;SDS011;43304;52.332;6.110;2023-04-28T13:39:25;12.15;;;11.15;;
57457;SDS011;43304;52.332;6.110;2023-04-28T13:41:52;11.65;;;10.45;;
57457;SDS011;43304;52.332;6.110;2023-04-28T13:44:19;15.23;;;13.25;;
57457;SDS011;43304;52.332;6.110;2023-04-28T13:46:46;9.80;;;9.00;;
57457;SDS011;43304;52.332;6.110;2023-04-28T13:49:14;9.20;;;8.40;;
57457;SDS011;43304;52.332;6.110;2023-04-28T13:51:41;9.10;;;8.30;;
57457;SDS011;43304;52.332;6.110;2023-04-28T13:54:08;8.60;;;7.90;;
57457;SDS011;43304;52.332;6.110;2023-04-28T13:56:37;8.50;;;7.80;;
57457;SDS011;43304;52.332;6.110;2023-04-28T13:59:04;9.18;;;8.35;;
57457;SDS011;43304;52.332;6.110;2023-04-28T14:01:31;9.27;;;8.48;;
57457;SDS011;43304;52.332;6.110;2023-04-28T14:03:58;9.13;;;8.23;;
57457;SDS011;43304;52.332;6.110;2023-04-28T14:06:25;9.15;;;8.32;;
57457;SDS011;43304;52.332;6.110;2023-04-28T14:08:53;9.10;;;8.27;;
57457;SDS011;43304;52.332;6.110;2023-04-28T14:11:20;9.50;;;8.60;;
57457;SDS011;43304;52.332;6.110;2023-04-28T14:13:47;8.60;;;7.80;;
57457;SDS011;43304;52.332;6.110;2023-04-28T14:16:14;8.55;;;7.75;;
57457;SDS011;43304;52.332;6.110;2023-04-28T14:18:41;8.18;;;7.47;;
57457;SDS011;43304;52.332;6.110;2023-04-28T14:21:08;7.78;;;7.07;;
57457;SDS011;43304;52.332;6.110;2023-04-28T14:23:35;8.63;;;7.83;;
57457;SDS011;43304;52.332;6.110;2023-04-28T14:26:02;8.43;;;7.63;;
57457;SDS011;43304;52.332;6.110;2023-04-28T14:28:29;8.60;;;7.80;;
57457;SDS011;43304;52.332;6.110;2023-04-28T14:30:56;9.30;;;8.50;;
57457;SDS011;43304;52.332;6.110;2023-04-28T14:33:23;8.30;;;7.60;;
57457;SDS011;43304;52.332;6.110;2023-04-28T14:35:50;8.50;;;7.70;;
57457;SDS011;43304;52.332;6.110;2023-04-28T14:38:17;8.65;;;7.95;;
57457;SDS011;43304;52.332;6.110;2023-04-28T14:40:44;8.25;;;7.45;;
57457;SDS011;43304;52.332;6.110;2023-04-28T14:43:11;8.48;;;7.78;;
57457;SDS011;43304;52.332;6.110;2023-04-28T14:45:39;9.70;;;8.90;;
57457;SDS011;43304;52.332;6.110;2023-04-28T14:48:07;8.52;;;7.93;;
57457;SDS011;43304;52.332;6.110;2023-04-28T14:50:36;11.03;;;10.13;;
57457;SDS011;43304;52.332;6.110;2023-04-28T14:53:03;10.70;;;9.83;;
57457;SDS011;43304;52.332;6.110;2023-04-28T14:55:33;10.23;;;9.40;;
57457;SDS011;43304;52.332;6.110;2023-04-28T14:58:00;8.45;;;7.78;;
57457;SDS011;43304;52.332;6.110;2023-04-28T15:00:28;8.98;;;8.27;;